createdAt,value
2022-10-24T00:02:26.625Z,68.66
2022-10-24T00:04:53.583Z,68.91
2022-10-24T00:07:23.449Z,67.99
2022-10-24T00:09:50.060Z,67.51
2022-10-24T00:12:17.582Z,67.33
2022-10-24T00:14:44.831Z,66.49
2022-10-24T00:17:11.561Z,66.58
2022-10-24T00:19:38.200Z,66.68
2022-10-24T00:22:05.065Z,66.65
2022-10-24T00:24:33.277Z,66.47
2022-10-24T00:26:59.907Z,67.14
2022-10-24T00:29:26.572Z,67.74
2022-10-24T00:31:53.107Z,66.84
2022-10-24T00:34:19.661Z,67.53
2022-10-24T00:36:46.356Z,67.32
2022-10-24T00:39:13.403Z,67.75
2022-10-24T00:41:42.578Z,66.97
2022-10-24T00:44:23.146Z,67.32
2022-10-24T00:46:54.205Z,66.98
2022-10-24T00:49:24.207Z,66.98
2022-10-24T00:51:56.225Z,66.35
2022-10-24T00:54:23.377Z,64.80
2022-10-24T00:56:59.951Z,65.28
2022-10-24T00:59:27.821Z,65.42
2022-10-24T01:01:54.870Z,64.87
2022-10-24T01:04:21.372Z,65.32
2022-10-24T01:06:58.038Z,65.79
2022-10-24T01:09:40.054Z,65.19
2022-10-24T01:12:19.882Z,66.26
2022-10-24T01:14:53.027Z,65.73
2022-10-24T01:17:28.047Z,66.46
2022-10-24T01:20:18.522Z,66.00
2022-10-24T01:22:59.767Z,65.80
2022-10-24T01:25:38.742Z,65.24
2022-10-24T01:28:09.853Z,65.06
2022-10-24T01:30:43.655Z,64.92
2022-10-24T01:33:16.188Z,64.93
2022-10-24T01:35:47.667Z,64.95
2022-10-24T01:38:19.714Z,64.72
2022-10-24T01:40:52.999Z,64.77
2022-10-24T01:43:24.624Z,64.19
2022-10-24T01:45:58.218Z,65.06
2022-10-24T01:48:26.933Z,63.98
2022-10-24T01:50:56.230Z,64.20
2022-10-24T01:53:25.222Z,64.10
2022-10-24T01:55:53.560Z,63.64
2022-10-24T01:58:20.097Z,64.03
2022-10-24T02:00:48.504Z,63.42
2022-10-24T02:03:24.604Z,63.29
2022-10-24T02:05:56.275Z,63.01
2022-10-24T02:08:30.671Z,62.93
2022-10-24T02:11:01.642Z,63.09
2022-10-24T02:13:32.369Z,62.52
2022-10-24T02:16:01.211Z,62.50
2022-10-24T02:18:30.720Z,62.48
2022-10-24T02:21:06.517Z,62.92
2022-10-24T02:23:37.874Z,62.43
2022-10-24T02:26:12.332Z,61.75
2022-10-24T02:28:43.466Z,62.85
2022-10-24T02:31:15.747Z,62.46
2022-10-24T02:33:46.233Z,62.52
2022-10-24T02:36:17.259Z,62.65
2022-10-24T02:38:47.712Z,63.18
2022-10-24T02:41:20.976Z,63.39
2022-10-24T02:43:51.100Z,63.05
2022-10-24T02:46:19.456Z,62.70
2022-10-24T02:48:50.535Z,63.05
2022-10-24T02:51:21.155Z,62.87
2022-10-24T02:53:47.868Z,63.05
2022-10-24T02:56:14.402Z,62.97
2022-10-24T02:58:41.174Z,61.86
2022-10-24T03:01:07.958Z,62.02
2022-10-24T03:03:34.564Z,62.22
2022-10-24T03:06:02.535Z,61.80
2022-10-24T03:08:29.429Z,62.19
2022-10-24T03:10:56.318Z,62.24
2022-10-24T03:13:23.047Z,62.25
2022-10-24T03:15:50.011Z,61.79
2022-10-24T03:18:16.623Z,62.27
2022-10-24T03:20:43.147Z,62.39
2022-10-24T03:23:11.197Z,63.05
2022-10-24T03:25:37.968Z,63.13
2022-10-24T03:28:05.222Z,61.81
2022-10-24T03:30:31.800Z,62.10
2022-10-24T03:32:58.359Z,62.56
2022-10-24T03:35:24.984Z,62.29
2022-10-24T03:37:51.536Z,62.43
2022-10-24T03:40:19.840Z,62.74
2022-10-24T03:42:46.903Z,62.56
2022-10-24T03:45:13.766Z,61.96
2022-10-24T03:47:40.297Z,62.09
2022-10-24T03:50:09.391Z,62.04
2022-10-24T03:52:36.076Z,62.44
2022-10-24T03:55:02.704Z,61.53
2022-10-24T03:57:30.685Z,61.50
2022-10-24T03:59:57.529Z,61.60
2022-10-24T04:02:24.509Z,61.31
2022-10-24T04:04:51.225Z,61.57
2022-10-24T04:07:18.174Z,61.83
2022-10-24T04:09:45.347Z,62.30
2022-10-24T04:12:12.055Z,62.07
2022-10-24T04:14:39.954Z,61.65
2022-10-24T04:17:08.733Z,61.37
2022-10-24T04:19:35.316Z,61.71
2022-10-24T04:22:01.892Z,62.36
2022-10-24T04:24:28.710Z,62.34
2022-10-24T04:26:55.297Z,61.33
2022-10-24T04:29:21.866Z,61.38
2022-10-24T04:31:50.011Z,61.42
2022-10-24T04:34:17.457Z,61.38
2022-10-24T04:36:44.005Z,61.43
2022-10-24T04:39:11.178Z,61.04
2022-10-24T04:41:37.971Z,61.16
2022-10-24T04:44:06.119Z,61.93
2022-10-24T04:46:33.613Z,61.73
2022-10-24T04:49:01.516Z,61.47
2022-10-24T04:51:28.332Z,61.60
2022-10-24T04:53:54.929Z,60.96
2022-10-24T04:56:21.738Z,60.79
2022-10-24T04:58:48.933Z,61.34
2022-10-24T05:01:15.674Z,61.83
2022-10-24T05:03:43.803Z,61.18
2022-10-24T05:06:11.948Z,61.73
2022-10-24T05:08:38.693Z,62.12
2022-10-24T05:11:05.510Z,62.51
2022-10-24T05:13:35.839Z,61.51
2022-10-24T05:16:03.668Z,61.89
2022-10-24T05:18:30.272Z,62.18
2022-10-24T05:20:57.465Z,62.16
2022-10-24T05:23:27.579Z,62.27
2022-10-24T05:25:54.188Z,62.21
2022-10-24T05:28:21.036Z,62.14
2022-10-24T05:30:47.551Z,62.10
2022-10-24T05:33:14.249Z,61.21
2022-10-24T05:35:40.936Z,62.72
2022-10-24T05:38:07.731Z,62.23
2022-10-24T05:40:36.166Z,61.96
2022-10-24T05:43:04.935Z,61.71
2022-10-24T05:45:32.004Z,62.13
2022-10-24T05:47:58.940Z,62.24
2022-10-24T05:50:25.517Z,61.82
2022-10-24T05:52:52.074Z,62.68
2022-10-24T05:55:18.888Z,62.00
2022-10-24T05:57:48.777Z,61.55
2022-10-24T06:00:18.386Z,61.29
2022-10-24T06:05:14.403Z,61.33
2022-10-24T06:07:41.788Z,60.81
2022-10-24T06:10:10.005Z,60.63
2022-10-24T06:12:37.107Z,60.38
2022-10-24T06:15:12.384Z,59.81
2022-10-24T06:17:41.839Z,59.24
2022-10-24T06:20:11.035Z,59.92
2022-10-24T06:22:37.589Z,59.76
2022-10-24T06:25:05.028Z,59.43
2022-10-24T06:27:31.890Z,59.67
2022-10-24T06:29:58.543Z,60.74
2022-10-24T06:32:26.889Z,60.19
2022-10-24T06:34:58.353Z,59.78
2022-10-24T06:37:24.856Z,59.69
2022-10-24T06:39:51.463Z,59.99
2022-10-24T06:42:18.263Z,59.75
2022-10-24T06:44:45.191Z,59.88
2022-10-24T06:47:11.825Z,59.04
2022-10-24T06:49:45.031Z,58.56
2022-10-24T06:52:11.681Z,58.92
2022-10-24T06:54:38.441Z,58.72
2022-10-24T06:57:05.213Z,59.11
2022-10-24T06:59:32.062Z,58.69
2022-10-24T07:02:01.805Z,57.72
2022-10-24T07:04:31.640Z,58.15
2022-10-24T07:06:59.640Z,58.39
2022-10-24T07:09:26.238Z,57.03
2022-10-24T07:11:53.366Z,56.62
2022-10-24T07:14:19.941Z,55.87
2022-10-24T07:16:46.498Z,56.00
2022-10-24T07:19:13.078Z,56.36
2022-10-24T07:21:40.150Z,56.70
2022-10-24T07:24:12.214Z,56.25
2022-10-24T07:26:41.580Z,55.27
2022-10-24T07:29:08.780Z,54.26
2022-10-24T07:31:36.683Z,54.37
2022-10-24T07:34:06.611Z,54.96
2022-10-24T07:36:40.144Z,54.21
2022-10-24T07:39:09.593Z,55.04
2022-10-24T07:41:38.817Z,54.25
2022-10-24T07:44:05.352Z,54.22
2022-10-24T07:46:32.226Z,53.08
2022-10-24T07:48:58.941Z,53.37
2022-10-24T07:51:25.645Z,53.21
2022-10-24T07:53:52.414Z,52.51
2022-10-24T07:56:21.003Z,52.91
2022-10-24T07:58:47.914Z,53.08
2022-10-24T08:01:16.954Z,53.91
2022-10-24T08:03:44.410Z,52.68
2022-10-24T08:06:14.056Z,52.11
2022-10-24T08:08:41.377Z,51.76
2022-10-24T08:11:09.122Z,51.73
2022-10-24T08:13:37.717Z,51.06
2022-10-24T08:16:05.728Z,51.16
2022-10-24T08:18:37.232Z,50.37
2022-10-24T08:21:08.365Z,50.63
2022-10-24T08:23:37.272Z,50.47
2022-10-24T08:26:05.541Z,49.87
2022-10-24T08:28:32.409Z,49.73
2022-10-24T08:31:03.541Z,48.79
2022-10-24T08:33:30.789Z,49.88
2022-10-24T08:36:00.406Z,49.60
2022-10-24T08:38:27.161Z,49.18
2022-10-24T08:40:53.882Z,49.18
2022-10-24T08:43:21.066Z,49.61
2022-10-24T08:46:00.880Z,49.20
2022-10-24T08:48:35.743Z,49.82
2022-10-24T08:51:11.096Z,49.26
2022-10-24T08:53:39.401Z,49.34
2022-10-24T08:56:08.624Z,48.82
2022-10-24T08:58:38.171Z,49.84
2022-10-24T09:01:08.658Z,49.60
2022-10-24T09:03:57.954Z,50.00
2022-10-24T09:06:27.715Z,50.35
2022-10-24T09:08:57.810Z,50.14
2022-10-24T09:11:34.994Z,50.33
2022-10-24T09:14:05.750Z,50.69
2022-10-24T09:16:32.675Z,49.40
2022-10-24T09:19:03.171Z,49.63
2022-10-24T09:21:30.022Z,48.54
2022-10-24T09:23:57.085Z,49.07
2022-10-24T09:26:28.764Z,48.11
2022-10-24T09:28:55.645Z,48.08
2022-10-24T09:31:24.635Z,48.12
2022-10-24T09:33:52.672Z,49.01
2022-10-24T09:36:22.739Z,49.10
2022-10-24T09:38:50.117Z,50.36
2022-10-24T09:41:21.146Z,49.95
2022-10-24T09:43:51.012Z,49.45
2022-10-24T09:46:20.254Z,49.81
2022-10-24T09:48:54.040Z,48.74
2022-10-24T09:51:29.019Z,49.17
2022-10-24T09:54:02.937Z,49.28
2022-10-24T09:56:38.919Z,48.83
2022-10-24T09:59:26.992Z,48.48
2022-10-24T10:02:04.991Z,49.45
2022-10-24T10:04:31.668Z,48.42
2022-10-24T10:07:09.423Z,48.86
2022-10-24T10:09:37.208Z,47.97
2022-10-24T10:12:04.248Z,47.52
2022-10-24T10:14:31.209Z,47.57
2022-10-24T10:17:02.906Z,47.80
2022-10-24T10:19:36.774Z,47.35
2022-10-24T10:22:06.634Z,47.15
2022-10-24T10:24:39.547Z,46.86
2022-10-24T10:27:29.472Z,46.10
2022-10-24T10:30:19.566Z,46.10
2022-10-24T10:32:58.969Z,47.00
2022-10-24T10:35:34.770Z,46.72
2022-10-24T10:38:13.868Z,47.42
2022-10-24T10:40:44.949Z,47.10
2022-10-24T10:43:24.793Z,47.33
2022-10-24T10:46:05.920Z,47.07
2022-10-24T10:48:44.301Z,47.86
2022-10-24T10:51:18.565Z,47.48
2022-10-24T10:53:54.992Z,47.90
2022-10-24T10:56:31.455Z,48.16
2022-10-24T10:59:15.172Z,48.20
2022-10-24T11:01:53.734Z,47.49
2022-10-24T11:04:32.136Z,47.43
2022-10-24T11:07:06.266Z,47.72
2022-10-24T11:09:41.012Z,47.79
2022-10-24T11:12:14.770Z,47.97
2022-10-24T11:14:45.474Z,47.78
2022-10-24T11:17:16.855Z,47.71
2022-10-24T11:20:04.973Z,48.04
2022-10-24T11:22:38.313Z,47.59
2022-10-24T11:25:16.535Z,47.09
2022-10-24T11:27:49.520Z,47.08
2022-10-24T11:30:30.830Z,47.20
2022-10-24T11:33:02.241Z,47.57
2022-10-24T11:35:30.952Z,48.11
2022-10-24T11:38:02.488Z,47.82
2022-10-24T11:40:30.591Z,47.28
2022-10-24T11:43:11.353Z,47.66
2022-10-24T11:45:46.323Z,47.61
2022-10-24T11:48:21.291Z,47.00
2022-10-24T11:50:52.327Z,47.41
2022-10-24T11:53:41.231Z,47.71
2022-10-24T11:56:17.400Z,47.45
2022-10-24T11:58:55.342Z,48.26
2022-10-24T12:01:41.893Z,48.11
2022-10-24T12:04:33.086Z,48.92
2022-10-24T12:07:22.850Z,48.52
2022-10-24T12:10:18.714Z,48.29
2022-10-24T12:13:07.677Z,49.70
2022-10-24T12:15:45.576Z,48.83
2022-10-24T12:18:25.249Z,48.81
2022-10-24T12:20:53.427Z,49.58
2022-10-24T12:23:23.112Z,49.11
2022-10-24T12:26:03.203Z,48.48
2022-10-24T12:28:33.374Z,49.16
2022-10-24T12:31:22.257Z,47.41
2022-10-24T12:34:25.803Z,47.45
2022-10-24T12:37:04.828Z,47.12
2022-10-24T12:39:33.953Z,46.71
2022-10-24T12:42:01.305Z,47.12
2022-10-24T12:45:13.312Z,47.96
2022-10-24T12:47:41.165Z,47.29
2022-10-24T12:50:45.011Z,47.86
2022-10-24T12:53:29.173Z,46.64
2022-10-24T12:56:08.993Z,46.15
2022-10-24T12:58:38.367Z,46.20
2022-10-24T13:01:11.786Z,45.89
2022-10-24T13:04:02.886Z,45.95
2022-10-24T13:06:45.514Z,46.02
2022-10-24T13:09:30.292Z,46.64
2022-10-24T13:12:09.992Z,46.77
2022-10-24T13:15:13.514Z,47.84
2022-10-24T13:17:50.379Z,46.31
2022-10-24T13:20:23.187Z,46.11
2022-10-24T13:22:52.984Z,46.86
2022-10-24T13:25:27.584Z,46.21
2022-10-24T13:28:31.458Z,46.74
2022-10-24T13:31:31.494Z,47.31
2022-10-24T13:34:15.912Z,47.56
2022-10-24T13:36:45.648Z,47.27
2022-10-24T13:39:18.097Z,46.33
2022-10-24T13:41:47.740Z,47.83
2022-10-24T13:44:23.209Z,46.76
2022-10-24T13:46:54.710Z,46.46
2022-10-24T13:49:28.805Z,46.03
2022-10-24T13:52:00.625Z,47.35
2022-10-24T13:54:32.290Z,46.60
2022-10-24T13:57:01.987Z,47.00
2022-10-24T13:59:31.835Z,47.29
2022-10-24T14:02:01.843Z,48.36
2022-10-24T14:04:31.076Z,48.28
2022-10-24T14:07:04.715Z,48.22
2022-10-24T14:09:39.716Z,48.00
2022-10-24T14:12:19.403Z,46.94
2022-10-24T14:14:51.645Z,47.13
2022-10-24T14:17:23.640Z,47.03
2022-10-24T14:19:55.731Z,46.60
2022-10-24T14:22:28.361Z,46.95
2022-10-24T14:24:57.141Z,47.06
2022-10-24T14:27:24.806Z,47.29
2022-10-24T14:29:59.527Z,47.68
2022-10-24T14:32:29.356Z,47.76
2022-10-24T14:37:37.140Z,48.41
2022-10-24T14:40:05.245Z,49.04
2022-10-24T14:42:32.550Z,49.98
2022-10-24T14:44:59.506Z,49.05
2022-10-24T14:47:28.973Z,49.00
2022-10-24T14:49:57.478Z,48.66
2022-10-24T14:52:30.132Z,49.15
2022-10-24T14:55:00.758Z,48.92
2022-10-24T14:57:28.298Z,49.37
2022-10-24T14:59:58.047Z,49.54
2022-10-24T15:02:29.007Z,48.87
2022-10-24T15:05:26.485Z,48.47
2022-10-24T15:08:20.482Z,48.88
2022-10-24T15:10:43.949Z,48.94
2022-10-24T15:13:13.799Z,49.00
2022-10-24T15:15:53.405Z,48.80
2022-10-24T15:18:23.174Z,49.91
2022-10-24T15:20:54.708Z,48.92
2022-10-24T15:23:27.194Z,49.84
2022-10-24T15:26:03.027Z,50.00
2022-10-24T15:28:43.103Z,49.97
2022-10-24T15:31:10.948Z,49.78
2022-10-24T15:33:37.947Z,50.30
2022-10-24T15:36:06.961Z,50.17
2022-10-24T15:38:37.742Z,50.64
2022-10-24T15:41:09.190Z,50.35
2022-10-24T15:43:36.951Z,50.25
2022-10-24T15:46:03.952Z,49.74
2022-10-24T15:48:30.774Z,49.85
2022-10-24T15:50:59.204Z,50.34
2022-10-24T15:53:27.517Z,50.08
2022-10-24T15:55:54.597Z,50.08
2022-10-24T15:58:21.314Z,50.29
2022-10-24T16:00:48.300Z,51.59
2022-10-24T16:03:19.429Z,50.95
2022-10-24T16:05:49.896Z,51.14
2022-10-24T16:08:17.261Z,52.08
2022-10-24T16:10:46.364Z,52.35
2022-10-24T16:13:13.850Z,53.65
2022-10-24T16:15:41.395Z,54.76
2022-10-24T16:18:11.928Z,55.65
2022-10-24T16:20:39.355Z,56.17
2022-10-24T16:23:07.169Z,56.31
2022-10-24T16:25:36.086Z,56.24
2022-10-24T16:28:05.180Z,55.84
2022-10-24T16:30:33.556Z,56.20
2022-10-24T16:33:00.630Z,56.24
2022-10-24T16:35:29.664Z,57.10
2022-10-24T16:37:58.188Z,56.79
2022-10-24T16:40:25.682Z,56.80
2022-10-24T16:42:53.806Z,56.53
2022-10-24T16:45:22.727Z,56.65
2022-10-24T16:47:49.892Z,56.38
2022-10-24T16:50:18.839Z,56.08
2022-10-24T16:52:46.188Z,56.62
2022-10-24T16:55:14.011Z,56.24
2022-10-24T16:57:40.774Z,56.57
2022-10-24T17:00:09.283Z,56.26
2022-10-24T17:02:37.630Z,56.20
2022-10-24T17:05:04.684Z,56.76
2022-10-24T17:07:31.418Z,56.11
2022-10-24T17:09:57.953Z,56.06
2022-10-24T17:12:30.432Z,56.38
2022-10-24T17:14:57.039Z,56.15
2022-10-24T17:17:23.731Z,56.93
2022-10-24T17:19:52.308Z,56.66
2022-10-24T17:22:19.066Z,56.23
2022-10-24T17:24:46.189Z,57.36
2022-10-24T17:27:15.154Z,56.66
2022-10-24T17:29:42.435Z,56.17
2022-10-24T17:32:11.373Z,56.03
2022-10-24T17:34:39.029Z,55.79
2022-10-24T17:37:15.027Z,56.12
2022-10-24T17:39:48.261Z,55.25
2022-10-24T17:42:15.129Z,54.76
2022-10-24T17:44:42.380Z,54.85
2022-10-24T17:47:09.441Z,58.75
2022-10-24T17:49:36.357Z,60.54
2022-10-24T17:52:03.619Z,58.50
2022-10-24T17:54:31.902Z,58.25
2022-10-24T17:56:58.495Z,60.61
2022-10-24T17:59:25.374Z,61.81
2022-10-24T18:01:53.693Z,61.53
2022-10-24T18:04:22.522Z,61.56
2022-10-24T18:06:49.340Z,61.53
2022-10-24T18:09:16.447Z,63.17
2022-10-24T18:11:44.723Z,62.41
2022-10-24T18:14:11.435Z,63.36
2022-10-24T18:16:38.968Z,63.40
2022-10-24T18:19:06.206Z,63.54
2022-10-24T18:21:34.500Z,63.83
2022-10-24T18:24:02.446Z,64.14
2022-10-24T18:26:28.996Z,64.31
2022-10-24T18:28:57.513Z,65.22
2022-10-24T18:31:26.385Z,64.57
2022-10-24T18:33:53.975Z,65.09
2022-10-24T18:36:23.016Z,66.32
2022-10-24T18:38:50.101Z,65.11
2022-10-24T18:41:31.912Z,67.47
2022-10-24T18:44:03.398Z,65.00
2022-10-24T18:46:30.542Z,64.42
2022-10-24T18:48:57.790Z,65.28
2022-10-24T18:51:32.593Z,66.11
2022-10-24T18:54:05.654Z,65.54
2022-10-24T18:56:33.352Z,64.86
2022-10-24T18:59:22.231Z,65.22
2022-10-24T19:02:15.839Z,65.43
2022-10-24T19:04:47.319Z,65.00
2022-10-24T19:07:14.221Z,65.33
2022-10-24T19:09:41.301Z,65.08
2022-10-24T19:12:09.303Z,65.27
2022-10-24T19:14:41.091Z,65.23
2022-10-24T19:17:09.548Z,65.17
2022-10-24T19:19:36.099Z,65.08
2022-10-24T19:22:06.278Z,65.15
2022-10-24T19:24:32.814Z,65.20
2022-10-24T19:26:59.461Z,65.14
2022-10-24T19:29:26.314Z,65.22
2022-10-24T19:31:52.934Z,64.80
2022-10-24T19:34:19.461Z,65.51
2022-10-24T19:36:46.211Z,64.91
2022-10-24T19:39:14.698Z,64.95
2022-10-24T19:41:41.855Z,64.99
2022-10-24T19:44:09.021Z,64.96
2022-10-24T19:46:36.643Z,65.29
2022-10-24T19:49:03.660Z,65.21
2022-10-24T19:51:30.553Z,65.55
2022-10-24T19:53:57.184Z,65.26
2022-10-24T19:56:28.987Z,65.56
2022-10-24T19:58:56.346Z,66.10
2022-10-24T20:01:25.211Z,66.00
2022-10-24T20:03:52.836Z,66.91
2022-10-24T20:06:19.883Z,66.87
2022-10-24T20:08:48.026Z,66.19
2022-10-24T20:11:15.129Z,65.59
2022-10-24T20:13:44.458Z,66.49
2022-10-24T20:16:11.162Z,67.33
2022-10-24T20:21:08.677Z,66.01
2022-10-24T20:23:36.008Z,66.25
2022-10-24T20:26:06.113Z,66.39
2022-10-24T20:28:36.770Z,65.06
2022-10-24T20:31:05.862Z,64.50
2022-10-24T20:33:35.692Z,65.09
2022-10-24T20:36:02.941Z,65.06
2022-10-24T20:38:29.645Z,65.46
2022-10-24T20:41:00.916Z,65.92
2022-10-24T20:43:27.733Z,66.33
2022-10-24T20:45:57.441Z,65.93
2022-10-24T20:48:25.935Z,66.04
2022-10-24T20:51:01.801Z,65.77
2022-10-24T20:53:30.626Z,65.83
2022-10-24T20:55:57.221Z,65.72
2022-10-24T20:58:24.160Z,65.84
2022-10-24T21:00:50.896Z,65.47
2022-10-24T21:03:18.301Z,65.27
2022-10-24T21:05:48.047Z,65.82
2022-10-24T21:08:14.587Z,65.80
2022-10-24T21:10:41.108Z,65.95
2022-10-24T21:13:07.649Z,66.52
2022-10-24T21:15:34.506Z,66.72
2022-10-24T21:18:02.054Z,67.45
2022-10-24T21:20:38.002Z,67.80
2022-10-24T21:23:05.995Z,67.55
2022-10-24T21:25:34.589Z,67.14
2022-10-24T21:28:01.351Z,67.56
2022-10-24T21:30:28.020Z,67.75
2022-10-24T21:32:54.564Z,67.00
2022-10-24T21:35:21.306Z,66.82
2022-10-24T21:37:48.133Z,66.04
2022-10-24T21:40:16.801Z,66.41
2022-10-24T21:42:46.443Z,65.75
2022-10-24T21:45:13.468Z,65.55
2022-10-24T21:47:41.441Z,66.08
2022-10-24T21:50:08.759Z,66.16
2022-10-24T21:52:35.319Z,65.96
2022-10-24T21:55:02.111Z,65.47
2022-10-24T21:57:30.824Z,65.16
2022-10-24T21:59:57.481Z,65.43
2022-10-24T22:02:27.158Z,65.50
2022-10-24T22:04:54.092Z,66.02
2022-10-24T22:07:20.711Z,66.05
2022-10-24T22:09:49.577Z,66.12
2022-10-24T22:12:18.813Z,66.36
2022-10-24T22:14:47.075Z,66.34
2022-10-24T22:17:16.039Z,66.66
2022-10-24T22:19:42.694Z,66.82
2022-10-24T22:22:09.450Z,66.91
2022-10-24T22:24:36.194Z,66.74
2022-10-24T22:27:03.295Z,66.91
2022-10-24T22:29:29.952Z,67.61
2022-10-24T22:31:58.445Z,67.91
2022-10-24T22:34:26.359Z,67.69
2022-10-24T22:37:07.088Z,67.93
2022-10-24T22:39:34.235Z,67.94
2022-10-24T22:42:01.542Z,68.18
2022-10-24T22:44:28.679Z,69.07
2022-10-24T22:47:22.560Z,68.65
2022-10-24T22:49:59.502Z,68.90
2022-10-24T22:52:27.271Z,68.69
2022-10-24T22:54:54.644Z,68.26
2022-10-24T22:57:21.883Z,67.83
2022-10-24T22:59:48.948Z,67.73
2022-10-24T23:02:28.164Z,68.34
2022-10-24T23:05:03.393Z,68.32
2022-10-24T23:07:38.521Z,68.83
2022-10-24T23:10:10.348Z,67.87
2022-10-24T23:12:37.617Z,67.75
2022-10-24T23:15:05.680Z,67.32
2022-10-24T23:17:34.671Z,67.54
2022-10-24T23:20:02.007Z,66.85
2022-10-24T23:22:30.952Z,67.16
2022-10-24T23:25:03.724Z,67.16
2022-10-24T23:27:33.385Z,67.08
2022-10-24T23:30:01.313Z,67.12
2022-10-24T23:32:30.162Z,67.94
2022-10-24T23:34:59.320Z,68.33
2022-10-24T23:37:32.488Z,68.04
2022-10-24T23:40:00.049Z,67.40
2022-10-24T23:42:28.721Z,68.19
2022-10-24T23:44:56.013Z,68.01
2022-10-24T23:47:49.650Z,68.07
2022-10-24T23:50:25.178Z,68.78
2022-10-24T23:53:04.689Z,68.99
2022-10-24T23:55:31.993Z,68.83
2022-10-24T23:57:58.514Z,68.39
